Time;durP1;ratioP1;P1;durP2;ratioP2;P2;SDS_P1;SDS_P2;PMS_P1;PMS_P2;Temp;Humidity;BMP_temperature;BMP_pressure;BME280_temperature;BME280_humidity;BME280_pressure;Samples;Min_cycle;Max_cycle;Signal;HPM_P1;HPM_P2
2023/05/28 00:00:12;;;;;;;13.50;6.50;;;12.80;99.90;;;;;;4932214;28;20488;-58
2023/05/28 00:02:38;;;;;;;15.00;6.45;;;12.90;99.90;;;;;;4932960;28;20153;-59
2023/05/28 00:05:04;;;;;;;18.65;6.60;;;;;;;;;;4937487;28;20062;-58
2023/05/28 00:07:31;;;;;;;16.15;7.50;;;12.50;99.90;;;;;;4937349;28;20051;-57
2023/05/28 00:09:57;;;;;;;15.48;6.47;;;;;;;;;;4936292;28;20050;-58
2023/05/28 00:12:23;;;;;;;14.60;6.80;;;;;;;;;;4934837;28;20582;-59
2023/05/28 00:14:50;;;;;;;13.23;6.78;;;;;;;;;;4938004;28;20513;-58
2023/05/28 00:17:16;;;;;;;15.60;6.25;;;;;;;;;;4937647;28;20568;-58
2023/05/28 00:19:43;;;;;;;13.85;6.88;;;;;;;;;;4920372;28;20050;-58
2023/05/28 00:22:09;;;;;;;15.07;6.72;;;;;;;;;;4933094;28;20350;-58
2023/05/28 00:24:35;;;;;;;17.23;7.82;;;;;;;;;;4937845;28;20437;-58
2023/05/28 00:27:02;;;;;;;14.75;6.32;;;12.60;99.90;;;;;;4937631;28;20241;-58
2023/05/28 00:29:29;;;;;;;17.98;6.47;;;;;;;;;;4937527;28;20047;-59
2023/05/28 00:31:58;;;;;;;15.05;7.15;;;;;;;;;;4919266;28;20062;-58
2023/05/28 00:34:24;;;;;;;14.93;6.50;;;;;;;;;;4933841;28;20122;-58
2023/05/28 00:36:50;;;;;;;18.73;7.18;;;;;;;;;;4937393;28;20345;-57
2023/05/28 00:39:17;;;;;;;16.30;6.75;;;;;;;;;;4936998;28;20047;-58
2023/05/28 00:41:42;;;;;;;16.73;7.28;;;12.20;99.90;;;;;;4936834;28;20181;-58
2023/05/28 00:44:09;;;;;;;16.75;6.32;;;;;;;;;;4932942;28;20047;-58
2023/05/28 00:46:35;;;;;;;15.52;6.88;;;;;;;;;;4937725;28;20079;-59
2023/05/28 00:49:01;;;;;;;16.05;7.22;;;;;;;;;;4937419;28;20074;-58
2023/05/28 00:51:28;;;;;;;17.52;7.35;;;12.10;1.00;;;;;;4936559;28;20054;-59
2023/05/28 00:53:54;;;;;;;12.52;6.70;;;;;;;;;;4936807;28;20127;-57
2023/05/28 00:56:22;;;;;;;19.05;8.02;;;;;;;;;;4932383;28;20066;-56
2023/05/28 00:58:49;;;;;;;14.57;7.72;;;;;;;;;;4933776;28;20553;-56
2023/05/28 01:01:15;;;;;;;14.10;7.32;;;;;;;;;;4935438;28;20050;-57
2023/05/28 01:03:41;;;;;;;17.00;7.40;;;;;;;;;;4937820;28;20505;-56
2023/05/28 01:06:11;;;;;;;19.20;7.97;;;;;;;;;;4937425;28;20039;-58
2023/05/28 01:08:37;;;;;;;16.67;7.28;;;11.80;1.00;;;;;;4917600;29;20097;-58
2023/05/28 01:11:04;;;;;;;17.55;7.85;;;;;;;;;;4935312;28;20154;-57
2023/05/28 01:13:30;;;;;;;18.30;7.53;;;;;;;;;;4936712;28;20114;-57
2023/05/28 01:15:56;;;;;;;18.35;8.13;;;;;;;;;;4936680;28;20520;-57
2023/05/28 01:18:24;;;;;;;16.42;7.18;;;;;;;;;;4936493;28;20058;-56
2023/05/28 01:20:50;;;;;;;13.85;6.60;;;;;;;;;;4935526;28;20469;-58
2023/05/28 01:23:20;;;;;;;17.83;8.55;;;;;;;;;;4919243;29;20047;-58
2023/05/28 01:25:50;;;;;;;16.00;7.32;;;;;;;;;;4933599;28;20449;-58
2023/05/28 01:28:16;;;;;;;15.50;6.78;;;;;;;;;;4919366;28;20544;-56
2023/05/28 01:30:46;;;;;;;13.82;6.78;;;11.60;99.90;;;;;;4933381;28;20460;-57
2023/05/28 01:33:13;;;;;;;16.50;6.80;;;;;;;;;;4926727;29;20114;-57
2023/05/28 01:35:40;;;;;;;17.15;7.22;;;;;;;;;;4936802;28;20043;-58
2023/05/28 01:38:07;;;;;;;15.80;6.85;;;;;;;;;;4936798;28;20038;-58
2023/05/28 01:40:34;;;;;;;17.50;7.53;;;;;;;;;;4936223;28;20035;-59
2023/05/28 01:43:00;;;;;;;16.35;7.28;;;;;;;;;;4914878;29;20456;-59
2023/05/28 01:45:27;;;;;;;16.30;7.30;;;;;;;;;;4936549;28;20058;-59
2023/05/28 01:47:54;;;;;;;16.83;7.40;;;;;;;;;;4936659;28;20038;-59
2023/05/28 01:50:19;;;;;;;15.70;7.25;;;11.60;99.90;;;;;;4918312;29;20051;-59
2023/05/28 01:52:45;;;;;;;18.90;6.85;;;11.60;99.90;;;;;;4934624;28;20457;-58
2023/05/28 01:55:14;;;;;;;17.60;8.02;;;11.60;99.90;;;;;;4935543;28;20516;-59
2023/05/28 01:57:40;;;;;;;14.65;6.78;;;;;;;;;;4936742;28;20078;-59
2023/05/28 02:00:07;;;;;;;15.88;7.28;;;;;;;;;;4935195;28;20384;-59
2023/05/28 02:02:34;;;;;;;19.88;7.40;;;;;;;;;;4936002;28;20043;-59
2023/05/28 02:05:00;;;;;;;19.05;8.57;;;;;;;;;;4933106;28;20143;-59
2023/05/28 02:07:26;;;;;;;17.75;7.82;;;;;;;;;;4936479;28;20047;-60
2023/05/28 02:09:52;;;;;;;15.95;7.45;;;11.60;99.90;;;;;;4918136;29;20224;-58
2023/05/28 02:12:18;;;;;;;19.15;7.47;;;;;;;;;;4935647;28;20431;-60
2023/05/28 02:14:44;;;;;;;17.73;8.07;;;11.70;99.90;;;;;;4934277;28;20070;-59
2023/05/28 02:17:10;;;;;;;18.38;9.02;;;11.70;99.90;;;;;;4935613;28;20073;-59
2023/05/28 02:19:37;;;;;;;19.52;8.93;;;;;;;;;;4919557;28;20039;-60
2023/05/28 02:22:11;;;;;;;17.20;9.57;;;11.80;99.90;;;;;;4934813;28;20449;-59
2023/05/28 02:24:40;;;;;;;17.73;8.27;;;11.70;99.90;;;;;;4936161;28;20563;-60
2023/05/28 02:27:07;;;;;;;18.30;8.65;;;;;;;;;;4932828;28;20043;-59
2023/05/28 02:29:33;;;;;;;15.68;8.02;;;;;;;;;;4914234;28;20234;-59
2023/05/28 02:32:00;;;;;;;18.92;9.63;;;;;;;;;;4934956;28;20527;-60
2023/05/28 02:34:28;;;;;;;18.63;8.80;;;11.20;99.90;;;;;;4935791;28;20130;-59
2023/05/28 02:36:55;;;;;;;20.13;8.73;;;11.50;99.90;;;;;;4933718;28;20114;-60
2023/05/28 02:39:21;;;;;;;17.20;8.18;;;;;;;;;;4918785;29;20047;-59
2023/05/28 02:41:47;;;;;;;19.48;9.05;;;11.60;99.90;;;;;;4935040;28;20050;-59
2023/05/28 02:44:13;;;;;;;21.27;9.32;;;;;;;;;;4935470;28;20047;-60
2023/05/28 02:46:39;;;;;;;17.42;9.20;;;;;;;;;;4935800;28;20046;-59
2023/05/28 02:49:06;;;;;;;19.25;8.43;;;;;;;;;;4917738;29;20744;-58
2023/05/28 02:51:32;;;;;;;18.65;8.13;;;;;;;;;;4935250;28;20047;-58
2023/05/28 02:53:58;;;;;;;17.33;8.05;;;;;;;;;;4935779;28;20048;-59
2023/05/28 02:56:24;;;;;;;15.40;7.53;;;;;;;;;;4936071;28;20039;-58
2023/05/28 02:58:51;;;;;;;15.65;8.45;;;11.50;1.00;;;;;;4931693;28;20447;-59
2023/05/28 03:01:17;;;;;;;19.27;8.10;;;;;;;;;;4926544;28;20765;-59
2023/05/28 03:03:43;;;;;;;15.70;7.43;;;11.50;1.00;;;;;;4935777;28;20158;-59
2023/05/28 03:06:09;;;;;;;16.17;7.15;;;;;;;;;;4935670;28;20087;-58
2023/05/28 03:08:35;;;;;;;16.27;6.90;;;;;;;;;;4918494;28;20047;-58
2023/05/28 03:11:01;;;;;;;13.88;6.68;;;;;;;;;;4932181;28;20046;-59
2023/05/28 03:13:26;;;;;;;15.43;6.93;;;11.30;1.00;;;;;;4917828;29;20539;-59
2023/05/28 03:15:52;;;;;;;17.13;6.95;;;;;;;;;;4935596;28;20046;-59
2023/05/28 03:18:18;;;;;;;15.40;7.05;;;11.30;1.00;;;;;;4928346;28;20081;-59
2023/05/28 03:20:44;;;;;;;17.27;7.68;;;;;;;;;;4920316;28;20494;-59
2023/05/28 03:23:10;;;;;;;16.27;7.20;;;11.70;1.00;;;;;;4922011;28;20059;-58
2023/05/28 03:25:36;;;;;;;21.35;8.38;;;;;;;;;;4928979;28;20541;-57
2023/05/28 03:28:02;;;;;;;16.85;7.43;;;11.40;1.00;;;;;;4935217;28;20355;-59
2023/05/28 03:30:27;;;;;;;15.20;6.68;;;11.10;1.00;;;;;;4934839;28;20039;-59
2023/05/28 03:32:53;;;;;;;24.15;8.50;;;;;;;;;;4931583;28;20114;-58
2023/05/28 03:35:19;;;;;;;16.20;8.07;;;;;;;;;;4927490;28;20465;-59
2023/05/28 03:37:45;;;;;;;15.38;7.70;;;11.20;1.00;;;;;;4934035;28;20050;-58
2023/05/28 03:40:12;;;;;;;17.45;7.80;;;;;;;;;;4931165;28;20481;-58
2023/05/28 03:42:39;;;;;;;18.85;7.90;;;;;;;;;;4931367;28;20051;-60
2023/05/28 03:45:06;;;;;;;15.05;7.15;;;;;;;;;;4913760;29;20682;-58
2023/05/28 03:47:32;;;;;;;17.27;7.15;;;11.00;15.10;;;;;;4933464;28;20527;-59
2023/05/28 03:49:58;;;;;;;15.60;6.72;;;11.00;24.40;;;;;;4933132;28;20047;-59
2023/05/28 03:52:25;;;;;;;16.98;7.18;;;11.30;39.10;;;;;;4934772;28;20050;-58
2023/05/28 03:54:51;;;;;;;15.63;6.93;;;;;;;;;;4930365;28;20524;-59
2023/05/28 03:57:17;;;;;;;17.27;7.22;;;;;;;;;;4894842;29;20047;-58
2023/05/28 03:59:42;;;;;;;15.05;7.72;;;11.20;7.20;;;;;;4938202;28;20038;-59
2023/05/28 04:02:09;;;;;;;13.15;6.30;;;;;;;;;;4936378;28;20578;-58
2023/05/28 04:04:35;;;;;;;17.08;7.13;;;;;;;;;;4919696;29;20039;-58
2023/05/28 04:07:01;;;;;;;18.13;6.57;;;;;;;;;;4919209;29;20047;-58
2023/05/28 04:09:27;;;;;;;18.17;8.13;;;11.20;13.50;;;;;;4920013;29;20047;-58
2023/05/28 04:11:53;;;;;;;16.00;6.28;;;11.10;46.30;;;;;;4936766;28;20053;-57
2023/05/28 04:14:19;;;;;;;13.88;6.60;;;;;;;;;;4936053;28;20439;-59
2023/05/28 04:16:47;;;;;;;13.55;5.90;;;11.70;41.50;;;;;;4916265;28;20524;-60
2023/05/28 04:19:13;;;;;;;20.52;7.60;;;;;;;;;;4936494;28;20050;-60
2023/05/28 04:21:39;;;;;;;14.80;6.53;;;11.10;61.90;;;;;;4936782;28;20805;-59
2023/05/28 04:24:05;;;;;;;18.27;6.65;;;11.40;87.90;;;;;;4936473;28;20035;-59
2023/05/28 04:26:32;;;;;;;14.63;6.70;;;;;;;;;;4934616;28;20051;-59
2023/05/28 04:28:59;;;;;;;18.15;7.35;;;;;;;;;;4935368;29;20370;-59
2023/05/28 04:31:27;;;;;;;17.63;7.60;;;;;;;;;;4936128;28;20329;-59
2023/05/28 04:33:53;;;;;;;16.00;7.18;;;11.50;1.00;;;;;;4919389;28;20047;-59
2023/05/28 04:36:20;;;;;;;13.15;6.65;;;;;;;;;;4936631;28;20125;-60
2023/05/28 04:38:46;;;;;;;16.83;8.23;;;;;;;;;;4932238;28;20214;-58
2023/05/28 04:41:15;;;;;;;22.67;9.48;;;;;;;;;;4934081;28;20258;-58
2023/05/28 04:43:41;;;;;;;20.92;10.10;;;;;;;;;;4936853;28;20043;-58
2023/05/28 04:46:11;;;;;;;21.80;11.68;;;;;;;;;;4936461;28;20046;-58
2023/05/28 04:48:37;;;;;;;25.83;14.20;;;11.50;1.00;;;;;;4917750;29;20047;-58
2023/05/28 04:51:03;;;;;;;21.20;11.60;;;;;;;;;;4933180;28;20035;-58
2023/05/28 04:53:31;;;;;;;21.52;10.48;;;;;;;;;;4936110;28;20493;-57
2023/05/28 04:55:58;;;;;;;20.25;9.77;;;;;;;;;;4920177;29;20106;-58
2023/05/28 04:58:24;;;;;;;17.48;9.68;;;11.60;1.00;;;;;;4935419;28;20039;-58
2023/05/28 05:00:51;;;;;;;18.08;8.55;;;11.30;1.00;;;;;;4932502;28;20047;-59
2023/05/28 05:03:17;;;;;;;19.10;8.68;;;;;;;;;;4935275;28;20051;-58
2023/05/28 05:05:43;;;;;;;18.45;8.95;;;;;;;;;;4936099;28;20435;-59
2023/05/28 05:08:12;;;;;;;18.63;8.65;;;;;;;;;;4935389;28;20047;-58
2023/05/28 05:10:39;;;;;;;19.30;9.10;;;11.60;1.00;;;;;;4932690;28;20094;-58
2023/05/28 05:13:04;;;;;;;18.05;9.27;;;11.50;1.00;;;;;;4935670;28;20035;-56
2023/05/28 05:15:30;;;;;;;17.77;8.85;;;;;;;;;;4936360;28;20099;-59
2023/05/28 05:17:56;;;;;;;18.38;8.88;;;11.30;43.00;;;;;;4935772;28;20065;-58
2023/05/28 05:20:22;;;;;;;18.88;8.23;;;11.70;49.30;;;;;;4934687;28;20043;-59
2023/05/28 05:22:47;;;;;;;19.00;7.78;;;11.80;50.80;;;;;;4918001;29;20698;-58
2023/05/28 05:25:13;;;;;;;15.30;8.13;;;;;;;;;;4935359;28;20043;-57
2023/05/28 05:27:39;;;;;;;18.38;7.95;;;;;;;;;;4936614;28;20118;-59
2023/05/28 05:30:06;;;;;;;19.63;8.77;;;12.10;99.10;;;;;;4935166;28;20429;-58
2023/05/28 05:32:32;;;;;;;19.35;8.73;;;12.00;92.50;;;;;;4932493;28;20481;-58
2023/05/28 05:34:57;;;;;;;16.17;8.15;;;12.20;99.90;;;;;;4935231;28;20049;-58
2023/05/28 05:37:23;;;;;;;16.50;8.20;;;;;;;;;;4918750;29;20039;-57
2023/05/28 05:39:49;;;;;;;17.23;8.05;;;;;;;;;;4918099;29;20043;-57
2023/05/28 05:42:15;;;;;;;17.85;8.48;;;12.30;99.90;;;;;;4902166;29;20489;-57
2023/05/28 05:44:40;;;;;;;20.83;8.80;;;12.50;99.90;;;;;;4934356;28;20039;-57
2023/05/28 05:47:06;;;;;;;20.15;8.15;;;12.50;99.90;;;;;;4911356;29;20089;-57
2023/05/28 05:49:32;;;;;;;15.80;8.52;;;;;;;;;;4935800;28;20597;-58
2023/05/28 05:51:58;;;;;;;16.20;7.93;;;;;;;;;;4935322;28;20399;-57
2023/05/28 05:54:23;;;;;;;23.27;9.00;;;12.80;99.90;;;;;;4934873;28;20047;-57
2023/05/28 05:56:49;;;;;;;17.05;8.27;;;12.70;99.90;;;;;;4909345;29;20354;-56
2023/05/28 05:59:15;;;;;;;16.63;8.35;;;;;;;;;;4935325;28;20464;-58
2023/05/28 06:01:41;;;;;;;14.77;8.63;;;;;;;;;;4933322;28;20497;-57
2023/05/28 06:04:07;;;;;;;17.85;7.88;;;;;;;;;;4935320;28;20109;-57
2023/05/28 06:06:38;;;;;;;13.60;6.68;;;13.20;99.90;;;;;;4933714;28;20039;-57
2023/05/28 06:09:04;;;;;;;13.80;6.22;;;12.90;99.90;;;;;;4932249;28;20103;-57
2023/05/28 06:11:30;;;;;;;14.57;5.90;;;;;;;;;;4934802;28;20051;-56
2023/05/28 06:13:56;;;;;;;15.50;5.63;;;12.90;99.90;;;;;;4918069;29;20168;-58
2023/05/28 06:16:22;;;;;;;14.25;5.43;;;;;;;;;;4932354;28;20043;-58
2023/05/28 06:18:48;;;;;;;10.13;5.32;;;;;;;;;;4935697;28;20070;-58
2023/05/28 06:21:14;;;;;;;12.02;5.03;;;13.00;83.40;;;;;;4934652;28;20079;-58
2023/05/28 06:23:39;;;;;;;11.73;4.68;;;13.10;52.80;;;;;;4935222;28;20130;-56
2023/05/28 06:26:05;;;;;;;8.85;4.22;;;13.10;44.10;;;;;;4899861;29;20762;-57
2023/05/28 06:28:31;;;;;;;13.75;5.00;;;13.10;39.00;;;;;;4914165;28;20227;-58
2023/05/28 06:30:57;;;;;;;13.50;4.80;;;13.00;28.00;;;;;;4917803;29;20078;-56
2023/05/28 06:33:22;;;;;;;10.07;5.28;;;13.40;1.00;;;;;;4935004;28;20375;-57
2023/05/28 06:35:48;;;;;;;13.05;6.20;;;13.20;1.00;;;;;;4916942;29;20190;-58
2023/05/28 06:38:14;;;;;;;13.90;5.97;;;13.20;1.00;;;;;;4931140;28;20043;-59
2023/05/28 06:40:39;;;;;;;14.35;7.13;;;13.10;99.90;;;;;;4911704;29;20525;-57
2023/05/28 06:43:05;;;;;;;17.92;6.70;;;;;;;;;;4927704;28;20051;-58
2023/05/28 06:45:32;;;;;;;16.35;6.30;;;;;;;;;;4922951;28;20079;-59
2023/05/28 06:47:59;;;;;;;18.65;8.43;;;13.20;99.90;;;;;;4909860;29;20075;-59
2023/05/28 06:50:25;;;;;;;13.52;6.65;;;13.20;99.90;;;;;;4909342;29;20129;-59
2023/05/28 06:52:51;;;;;;;13.55;6.18;;;;;;;;;;4931470;28;20047;-58
2023/05/28 06:55:17;;;;;;;16.85;6.57;;;;;;;;;;4936727;28;20461;-57
2023/05/28 06:57:44;;;;;;;15.95;6.32;;;13.40;99.90;;;;;;4934917;28;20039;-58
2023/05/28 07:00:14;;;;;;;14.60;4.97;;;;;;;;;;4936738;28;20154;-58
2023/05/28 07:02:40;;;;;;;11.68;4.53;;;13.50;99.90;;;;;;4935493;28;20122;-57
2023/05/28 07:05:06;;;;;;;13.30;4.22;;;13.30;89.70;;;;;;4938039;28;20050;-57
2023/05/28 07:07:34;;;;;;;10.50;4.30;;;13.80;1.00;;;;;;4904953;29;20469;-57
2023/05/28 07:10:00;;;;;;;10.68;4.60;;;;;;;;;;4926521;28;20050;-57
2023/05/28 07:12:26;;;;;;;13.93;4.70;;;;;;;;;;4903277;29;20619;-57
2023/05/28 07:14:52;;;;;;;12.07;4.57;;;13.50;99.90;;;;;;4925132;29;20055;-58
2023/05/28 07:17:18;;;;;;;11.52;4.75;;;13.70;99.90;;;;;;4931594;28;20040;-58
2023/05/28 07:19:43;;;;;;;12.80;4.22;;;13.30;99.90;;;;;;4930969;28;20464;-57
2023/05/28 07:22:09;;;;;;;9.68;3.80;;;13.70;99.90;;;;;;4929422;28;20047;-58
2023/05/28 07:24:35;;;;;;;10.57;4.10;;;13.10;99.90;;;;;;4923397;28;20043;-58
2023/05/28 07:27:00;;;;;;;9.15;3.53;;;13.70;99.90;;;;;;4927135;28;20062;-58
2023/05/28 07:29:30;;;;;;;12.45;3.85;;;;;;;;;;4935158;28;20055;-58
2023/05/28 07:31:55;;;;;;;11.00;3.85;;;13.70;99.90;;;;;;4919413;28;20163;-59
2023/05/28 07:34:21;;;;;;;10.20;4.13;;;13.70;99.90;;;;;;4937574;28;20215;-59
2023/05/28 07:36:47;;;;;;;9.20;4.00;;;13.80;99.90;;;;;;4938714;28;20039;-59
2023/05/28 07:39:13;;;;;;;10.82;3.60;;;13.10;99.90;;;;;;4937524;28;20381;-61
2023/05/28 07:41:39;;;;;;;7.70;3.70;;;13.80;99.90;;;;;;4938432;28;20071;-61
2023/05/28 07:44:06;;;;;;;12.10;4.20;;;14.30;99.90;;;;;;4938247;28;20039;-59
2023/05/28 07:46:32;;;;;;;9.75;3.58;;;13.80;99.90;;;;;;4938330;28;20039;-58
2023/05/28 07:48:57;;;;;;;8.85;3.72;;;13.30;99.90;;;;;;4937912;28;20496;-58
2023/05/28 07:51:26;;;;;;;10.57;3.42;;;;;;;;;;4937286;28;20039;-58
2023/05/28 07:53:52;;;;;;;8.65;3.10;;;13.70;99.90;;;;;;4937978;28;20056;-56
2023/05/28 07:56:18;;;;;;;7.97;3.22;;;;;;;;;;4944179;28;20665;-57
2023/05/28 07:58:45;;;;;;;8.25;3.13;;;13.90;99.90;;;;;;4944494;28;20040;-57
2023/05/28 08:01:10;;;;;;;8.80;3.42;;;14.40;79.50;;;;;;4941826;28;20042;-58
2023/05/28 08:03:36;;;;;;;7.57;3.20;;;14.30;1.00;;;;;;4944585;28;20564;-58
2023/05/28 08:06:02;;;;;;;11.57;4.15;;;14.10;1.00;;;;;;4924321;28;20050;-58
2023/05/28 08:08:28;;;;;;;10.30;3.83;;;14.10;1.00;;;;;;4910853;28;20083;-58
2023/05/28 08:10:54;;;;;;;7.45;3.90;;;;;;;;;;4945688;28;20088;-58
2023/05/28 08:13:20;;;;;;;9.63;3.72;;;;;;;;;;4943870;28;20090;-58
2023/05/28 08:15:47;;;;;;;11.57;4.18;;;14.70;1.00;;;;;;4944864;28;20039;-58
2023/05/28 08:18:12;;;;;;;8.75;3.72;;;13.70;1.00;;;;;;4943062;28;20042;-59
2023/05/28 08:20:39;;;;;;;11.23;3.80;;;14.60;1.00;;;;;;4943940;28;20588;-59
2023/05/28 08:23:05;;;;;;;12.95;4.90;;;;;;;;;;4940175;28;20840;-59
2023/05/28 08:25:32;;;;;;;9.63;4.88;;;14.20;1.00;;;;;;4942989;28;20070;-58
2023/05/28 08:27:58;;;;;;;9.25;4.00;;;;;;;;;;4946552;28;20043;-59
2023/05/28 08:30:24;;;;;;;13.38;4.53;;;14.50;1.00;;;;;;4942212;28;20050;-57
2023/05/28 08:32:50;;;;;;;10.38;4.40;;;14.10;1.00;;;;;;4944701;28;20465;-58
2023/05/28 08:35:16;;;;;;;10.48;4.70;;;15.00;1.00;;;;;;4925017;28;20421;-58
2023/05/28 08:37:42;;;;;;;13.80;5.13;;;14.40;1.00;;;;;;4944251;28;20282;-57
2023/05/28 08:40:08;;;;;;;11.60;4.80;;;14.50;1.00;;;;;;4935336;28;20210;-58
2023/05/28 08:42:35;;;;;;;9.57;4.53;;;14.80;1.00;;;;;;4936956;28;20546;-59
2023/05/28 08:45:02;;;;;;;12.68;4.47;;;14.60;1.00;;;;;;4937140;28;20599;-58
2023/05/28 08:47:31;;;;;;;11.38;4.68;;;14.80;1.00;;;;;;4937281;28;20039;-57
2023/05/28 08:50:03;;;;;;;10.88;4.63;;;14.60;1.00;;;;;;4936162;28;20779;-58
2023/05/28 08:52:31;;;;;;;10.07;5.00;;;15.00;1.00;;;;;;4936120;28;20382;-58
2023/05/28 08:54:58;;;;;;;11.95;4.72;;;14.80;99.90;;;;;;4937028;28;20054;-58
2023/05/28 08:57:25;;;;;;;10.85;5.28;;;14.50;99.90;;;;;;4936618;28;20110;-58
2023/05/28 08:59:52;;;;;;;11.82;5.65;;;14.90;99.90;;;;;;4936589;28;20130;-58
2023/05/28 09:02:20;;;;;;;9.60;4.90;;;14.80;99.90;;;;;;4936550;28;20039;-59
2023/05/28 09:04:46;;;;;;;11.75;5.40;;;15.10;99.90;;;;;;4937185;28;20161;-58
2023/05/28 09:07:12;;;;;;;10.52;5.25;;;15.90;99.90;;;;;;4935857;28;20078;-59
2023/05/28 09:09:39;;;;;;;10.38;5.45;;;15.00;99.90;;;;;;4936740;28;20142;-59
2023/05/28 09:12:09;;;;;;;9.90;4.97;;;15.10;99.90;;;;;;4935452;28;20047;-58
2023/05/28 09:14:40;;;;;;;11.43;5.22;;;14.80;99.90;;;;;;4935319;29;20047;-59
2023/05/28 09:17:08;;;;;;;10.50;4.93;;;14.70;99.90;;;;;;4918850;29;20043;-59
2023/05/28 09:19:35;;;;;;;11.45;6.03;;;15.40;99.90;;;;;;4936138;28;20039;-58
2023/05/28 09:22:03;;;;;;;13.15;4.72;;;14.90;99.90;;;;;;4934218;28;20122;-59
2023/05/28 09:24:30;;;;;;;9.75;5.30;;;14.60;99.90;;;;;;4935827;28;20560;-59
2023/05/28 09:26:57;;;;;;;10.38;5.05;;;15.70;99.90;;;;;;4936545;28;20114;-58
2023/05/28 09:29:26;;;;;;;12.02;5.00;;;;;;;;;;4935106;28;20419;-59
2023/05/28 09:31:56;;;;;;;8.68;4.45;;;15.70;99.90;;;;;;4935784;28;20039;-59
2023/05/28 09:34:31;;;;;;;10.70;4.38;;;15.70;48.50;;;;;;4935482;28;20050;-59
2023/05/28 09:37:01;;;;;;;8.27;4.45;;;15.70;57.30;;;;;;4936486;28;20378;-58
2023/05/28 09:39:27;;;;;;;8.30;4.40;;;15.40;54.50;;;;;;4934953;28;20796;-58
2023/05/28 09:42:03;;;;;;;10.05;4.50;;;15.20;43.80;;;;;;4935923;28;20192;-59
2023/05/28 09:44:36;;;;;;;8.30;4.20;;;;;;;;;;4934941;28;20130;-59
2023/05/28 09:47:22;;;;;;;8.95;4.25;;;15.40;10.30;;;;;;4903385;28;20085;-58
2023/05/28 09:49:49;;;;;;;7.70;4.07;;;16.60;1.00;;;;;;4932702;28;20047;-58
2023/05/28 09:52:19;;;;;;;8.70;4.00;;;15.80;1.00;;;;;;4934738;28;20053;-58
2023/05/28 09:54:51;;;;;;;9.27;3.85;;;16.30;1.00;;;;;;4936469;28;20052;-59
2023/05/28 09:57:20;;;;;;;6.60;3.42;;;15.60;1.00;;;;;;4935582;28;20403;-57
2023/05/28 09:59:49;;;;;;;8.25;3.45;;;16.00;1.00;;;;;;4935653;28;20043;-59
2023/05/28 10:02:30;;;;;;;9.25;3.65;;;16.60;1.00;;;;;;4935171;28;20588;-59
2023/05/28 10:05:00;;;;;;;7.43;3.30;;;16.60;1.00;;;;;;4938723;28;20271;-59
2023/05/28 10:07:28;;;;;;;6.47;2.60;;;;;;;;;;4921948;28;20082;-58
2023/05/28 10:09:55;;;;;;;6.88;3.25;;;17.30;1.00;;;;;;4940494;28;20303;-58
2023/05/28 10:12:29;;;;;;;7.35;3.22;;;16.70;1.00;;;;;;4939435;28;20492;-58
2023/05/28 10:14:55;;;;;;;6.50;3.00;;;17.40;1.00;;;;;;4919249;29;20062;-59
2023/05/28 10:17:21;;;;;;;9.35;3.67;;;17.00;1.00;;;;;;4903179;28;20069;-59
2023/05/28 10:19:48;;;;;;;7.82;3.80;;;17.20;1.00;;;;;;4934490;29;20051;-58
2023/05/28 10:22:15;;;;;;;10.25;3.30;;;17.50;1.00;;;;;;4937237;28;20050;-59
2023/05/28 10:24:42;;;;;;;7.72;2.72;;;17.40;1.00;;;;;;4941687;28;20176;-58
2023/05/28 10:27:12;;;;;;;7.75;3.03;;;17.60;1.00;;;;;;4936382;28;20611;-59
2023/05/28 10:29:43;;;;;;;7.80;2.72;;;17.30;1.00;;;;;;4928143;28;20049;-59
2023/05/28 10:32:09;;;;;;;9.32;3.03;;;17.70;1.00;;;;;;4934635;28;20039;-59
2023/05/28 10:34:38;;;;;;;8.07;2.88;;;17.80;1.00;;;;;;4935361;28;20045;-59
2023/05/28 10:37:06;;;;;;;7.40;3.33;;;17.20;1.00;;;;;;4935080;28;20397;-59
2023/05/28 10:39:42;;;;;;;8.30;3.25;;;;;;;;;;4933316;29;20599;-59
2023/05/28 10:42:09;;;;;;;6.30;2.97;;;17.70;1.00;;;;;;4934060;28;20127;-58
2023/05/28 10:45:05;;;;;;;8.52;3.53;;;17.50;1.00;;;;;;4918322;28;20042;-58
2023/05/28 10:47:36;;;;;;;7.03;3.22;;;17.50;1.00;;;;;;4918146;29;20050;-59
2023/05/28 10:50:15;;;;;;;9.98;3.65;;;18.80;1.00;;;;;;4906991;28;20047;-59
2023/05/28 10:52:41;;;;;;;8.15;3.33;;;18.20;1.00;;;;;;4947471;28;20061;-58
2023/05/28 10:55:12;;;;;;;8.93;3.58;;;18.40;1.00;;;;;;4906856;28;20390;-59
2023/05/28 10:57:44;;;;;;;9.80;3.63;;;17.90;1.00;;;;;;4927848;28;20043;-57
2023/05/28 11:00:13;;;;;;;8.55;3.92;;;17.50;1.00;;;;;;4933756;28;20541;-58
2023/05/28 11:02:42;;;;;;;10.70;3.22;;;18.00;1.00;;;;;;4912274;29;20465;-58
2023/05/28 11:05:08;;;;;;;10.35;3.97;;;18.80;1.00;;;;;;4938871;28;20058;-59
2023/05/28 11:07:35;;;;;;;9.63;3.90;;;18.10;1.00;;;;;;4939687;28;20766;-58
2023/05/28 11:10:02;;;;;;;10.30;3.95;;;18.20;1.00;;;;;;4920619;29;20157;-58
2023/05/28 11:12:31;;;;;;;9.38;4.00;;;18.00;1.00;;;;;;4938299;28;20417;-59
2023/05/28 11:14:56;;;;;;;8.35;3.95;;;19.10;1.00;;;;;;4939138;28;20285;-59
2023/05/28 11:17:22;;;;;;;10.38;4.10;;;18.10;1.00;;;;;;4938558;28;20485;-57
2023/05/28 11:19:50;;;;;;;8.40;3.80;;;18.10;1.00;;;;;;4939221;28;20192;-57
2023/05/28 11:22:18;;;;;;;10.60;4.43;;;18.20;1.00;;;;;;4920737;28;20057;-58
2023/05/28 11:25:00;;;;;;;10.30;4.32;;;18.50;1.00;;;;;;4921733;29;20465;-59
2023/05/28 11:27:30;;;;;;;11.38;4.13;;;18.70;1.00;;;;;;4939368;28;20580;-57
2023/05/28 11:29:59;;;;;;;11.40;4.35;;;18.70;1.00;;;;;;4905315;29;20047;-58
2023/05/28 11:32:26;;;;;;;8.85;3.78;;;19.20;1.00;;;;;;4936583;28;20038;-58
2023/05/28 11:34:53;;;;;;;7.82;3.75;;;19.00;1.00;;;;;;4945135;28;20098;-58
2023/05/28 11:37:25;;;;;;;9.80;4.15;;;19.20;1.00;;;;;;4921176;29;20126;-59
2023/05/28 11:39:52;;;;;;;9.85;3.72;;;19.50;1.00;;;;;;4932167;28;20043;-59
2023/05/28 11:42:19;;;;;;;11.23;3.90;;;19.80;1.00;;;;;;4921172;29;20054;-59
2023/05/28 11:44:50;;;;;;;8.68;3.85;;;19.40;1.00;;;;;;4921730;29;20054;-59
2023/05/28 11:47:16;;;;;;;7.47;3.10;;;19.80;1.00;;;;;;4921585;29;20054;-58
2023/05/28 11:49:42;;;;;;;9.13;3.47;;;19.90;1.00;;;;;;4921143;28;20043;-59
2023/05/28 11:52:18;;;;;;;9.52;3.25;;;19.40;1.00;;;;;;4937909;28;20057;-58
2023/05/28 11:54:52;;;;;;;7.40;2.83;;;19.60;1.00;;;;;;4917798;28;20500;-58
2023/05/28 11:57:23;;;;;;;8.02;3.33;;;19.30;1.00;;;;;;4920871;29;20517;-59
2023/05/28 12:00:15;;;;;;;10.70;3.63;;;19.90;1.00;;;;;;4905425;28;20473;-58
2023/05/28 12:02:52;;;;;;;10.05;3.70;;;20.60;1.00;;;;;;4930996;28;20070;-58
2023/05/28 12:05:18;;;;;;;9.55;3.33;;;20.80;1.00;;;;;;4937675;28;20985;-58
2023/05/28 12:07:52;;;;;;;8.73;3.35;;;20.00;1.00;;;;;;4938928;28;20434;-59
2023/05/28 12:10:20;;;;;;;9.07;4.07;;;19.80;1.00;;;;;;4920484;29;20057;-59
2023/05/28 12:12:51;;;;;;;10.60;3.95;;;20.90;1.00;;;;;;4920709;28;20233;-58
2023/05/28 12:15:18;;;;;;;10.63;3.95;;;20.30;1.00;;;;;;4938002;28;20075;-58
2023/05/28 12:17:46;;;;;;;11.02;3.78;;;20.50;1.00;;;;;;4938993;28;20047;-59
2023/05/28 12:20:12;;;;;;;11.43;4.07;;;21.20;1.00;;;;;;4936721;28;20102;-57
2023/05/28 12:22:39;;;;;;;11.52;3.58;;;20.60;1.00;;;;;;4938045;28;20363;-58
2023/05/28 12:25:06;;;;;;;9.75;3.92;;;20.50;1.00;;;;;;4937546;28;20212;-59
2023/05/28 12:27:32;;;;;;;9.52;3.95;;;20.70;1.00;;;;;;4937771;28;20058;-59
2023/05/28 12:29:57;;;;;;;8.73;3.40;;;20.70;1.00;;;;;;4920370;29;20339;-59
2023/05/28 12:32:23;;;;;;;12.85;3.70;;;22.20;1.00;;;;;;4937172;28;20081;-57
2023/05/28 12:34:51;;;;;;;10.57;4.20;;;23.30;1.00;;;;;;4938220;28;20535;-59
2023/05/28 12:37:18;;;;;;;8.13;3.78;;;25.80;1.00;;;;;;4925636;28;20758;-59
2023/05/28 12:39:43;;;;;;;9.93;3.33;;;27.10;1.00;;;;;;4920276;28;20043;-57
2023/05/28 12:42:09;;;;;;;11.05;4.38;;;29.90;99.90;;;;;;4903839;29;20471;-58
2023/05/28 12:44:35;;;;;;;9.05;3.60;;;31.30;99.90;;;;;;4921976;28;20047;-59
2023/05/28 12:47:01;;;;;;;12.40;3.60;;;32.60;99.90;;;;;;4941697;28;20046;-57
2023/05/28 12:49:26;;;;;;;10.30;3.58;;;33.80;99.90;;;;;;4926305;28;20050;-59
2023/05/28 12:51:52;;;;;;;9.75;3.40;;;35.20;99.90;;;;;;4945942;28;20157;-58
2023/05/28 12:54:18;;;;;;;11.35;3.67;;;36.50;99.90;;;;;;4945232;28;20104;-58
2023/05/28 12:56:43;;;;;;;8.73;3.20;;;37.20;99.90;;;;;;4948497;28;20035;-60
2023/05/28 12:59:30;;;;;;;7.50;3.22;;;38.00;99.90;;;;;;4941159;28;20042;-58
2023/05/28 13:01:55;;;;;;;8.27;3.13;;;38.30;99.90;;;;;;4938480;28;20514;-58
2023/05/28 13:04:22;;;;;;;8.02;3.50;;;39.10;99.90;;;;;;4928179;28;20145;-59
2023/05/28 13:06:48;;;;;;;7.40;3.60;;;39.40;99.90;;;;;;4926875;29;20051;-60
2023/05/28 13:09:14;;;;;;;10.63;3.70;;;39.60;99.90;;;;;;4941736;28;20485;-59
2023/05/28 13:11:41;;;;;;;9.32;3.63;;;40.30;99.90;;;;;;4936768;28;20042;-59
2023/05/28 13:14:07;;;;;;;11.45;4.10;;;40.40;99.90;;;;;;4939419;28;20457;-59
2023/05/28 13:16:33;;;;;;;9.27;3.60;;;40.20;99.90;;;;;;4938043;28;20047;-60
2023/05/28 13:19:01;;;;;;;10.60;3.55;;;40.60;99.90;;;;;;4937194;28;20126;-60